Latest Weather Observations for Middle Percy Island

IDQ60801

Issued at 4:02 pm EST Wednesday 22 February 2017 (issued every 30 minutes, with the page automatically refreshed every 10 minutes)

About weather observations | Map of weather stations | Latest weather observations for QLD | Other Formats
Station Details ID: 200001 Name: MIDDLE PERCY ISLAND Lat: -21.66 Lon: 150.27 Height: 208.7 m
Data from the previous 72 hours. | See also: Recent months at Middle Percy Island
Date/Time
EST
Temp
°C
App
Temp
°C
Dew
Point
°C
Rel
Hum
%
Delta-T
°C
Wind Press
QNH
hPa
Press
MSL
hPa
Rain since
9am
mm
Dir  Spd
km/h
Gust
km/h
Spd
kts
Gust
kts
22/03:30pm 26.0 - - - - SE 22 37 12 20 1014.2 1012.9 1.8
22/03:00pm 26.4 - - - - SSE 30 43 16 23 1014.1 1012.8 1.8
22/02:30pm 26.0 - - - - SSE 26 37 14 20 1014.1 1012.8 1.8
22/02:00pm 27.4 - - - - SE 24 35 13 19 1014.2 1012.9 1.8
22/01:30pm 27.4 - - - - SE 32 39 17 21 1014.3 1013.1 1.8
22/01:00pm 27.6 - - - - SSE 30 39 16 21 1014.6 1013.4 1.8
22/12:30pm 27.8 - - - - SE 24 33 13 18 1015.1 1013.9 1.8
22/12:00pm 26.5 - - - - SSE 22 32 12 17 1015.5 1014.2 1.6
22/11:30am 25.0 - - - - SSE 19 24 10 13 1015.8 1014.5 1.6
22/11:00am 24.8 - - - - SSE 35 50 19 27 1015.8 1014.5 1.4
22/10:44am 25.1 - - - - SSE 33 57 18 31 1015.7 1014.4 0.2
22/10:30am 25.4 - - - - SSE 20 35 11 19 1016.2 1014.9 0.2
22/10:00am 26.8 - - - - SSE 22 28 12 15 1016.5 1015.2 0.0
22/09:30am 26.1 - - - - S 19 28 10 15 1016.6 1015.3 0.0
22/09:00am 25.8 - - - - S 19 28 10 15 1016.5 1015.2 6.6
22/08:30am 24.6 - - - - SSE 22 32 12 17 1016.4 1015.1 6.6
22/08:00am 24.8 - - - - S 30 41 16 22 1016.3 1015.0 6.6
22/07:30am 24.4 - - - - S 30 37 16 20 1016.1 1014.8 6.6
22/07:19am 24.3 - - - - S 28 37 15 20 1016.0 1014.7 6.6
22/07:00am 26.2 - - - - SE 11 17 6 9 1016.0 1014.7 6.6
22/06:30am 25.6 - - - - E 9 15 5 8 1015.7 1014.4 6.6
22/06:00am 24.8 - - - - E 11 13 6 7 1015.5 1014.2 6.6
22/05:30am 24.5 - - - - E 11 17 6 9 1015.0 1013.8 6.6
22/05:00am 24.6 - - - - E 13 19 7 10 1014.9 1013.7 6.6
22/04:30am 23.6 - - - - E 17 46 9 25 1014.8 1013.6 6.4
22/04:27am 23.3 - - - - E 20 46 11 25 1014.5 1013.3 3.8
22/04:00am 25.6 - - - - ESE 7 13 4 7 1014.4 1013.2 0.2
22/03:30am 25.4 - - - - ESE 9 15 5 8 1014.2 1012.9 0.2
22/03:00am 25.4 - - - - E 9 17 5 9 1014.3 1013.1 0.2
22/02:30am 25.5 - - - - E 9 15 5 8 1014.5 1013.3 0.2
22/02:00am 25.3 - - - - ESE 11 22 6 12 1014.8 1013.6 0.2
22/01:30am 25.4 - - - - ESE 9 17 5 9 1015.1 1013.9 0.2
22/01:00am 25.3 - - - - E 9 19 5 10 1015.2 1014.0 0.2
22/12:30am 26.0 - - - - E 11 22 6 12 1015.4 1014.1 0.0
22/12:00am 26.0 - - - - E 11 19 6 10 1015.4 1014.1 0.0
 
Date/Time
EST
Temp
°C
App
Temp
°C
Dew
Point
°C
Rel
Hum
%
Delta-T
°C
Wind Press
QNH
hPa
Press
MSL
hPa
Rain since
9am
mm
Dir  Spd
km/h
Gust
km/h
Spd
kts
Gust
kts
21/11:30pm 26.0 - - - - ESE 11 20 6 11 1015.6 1014.3 0.0
21/11:00pm 26.1 - - - - ESE 13 24 7 13 1015.9 1014.6 0.0
21/10:30pm 26.1 - - - - E 11 24 6 13 1015.8 1014.5 0.0
21/10:00pm 26.1 - - - - E 9 22 5 12 1015.7 1014.4 0.0
21/09:30pm 26.2 - - - - ESE 15 24 8 13 1015.7 1014.4 0.0
21/09:00pm 26.3 - - - - ESE 20 32 11 17 1015.5 1014.2 0.0
21/08:30pm 26.3 - - - - ESE 13 19 7 10 1015.2 1014.0 0.0
21/08:00pm 26.2 - - - - ESE 11 17 6 9 1015.1 1013.9 0.0
21/07:30pm 26.1 - - - - E 9 20 5 11 1015.0 1013.8 0.0
21/07:00pm 26.2 - - - - E 7 13 4 7 1014.7 1013.5 0.0
21/06:30pm 26.4 - - - - ESE 9 15 5 8 1014.5 1013.3 0.0
21/06:00pm 27.0 - - - - ESE 13 22 7 12 1014.3 1013.1 0.0
21/05:30pm 27.2 - - - - SE 13 22 7 12 1014.1 1012.8 0.0
21/05:00pm 27.9 - - - - ESE 15 24 8 13 1014.0 1012.7 0.0
21/04:30pm 28.2 - - - - ESE 15 22 8 12 1013.9 1012.6 0.0
21/04:00pm 28.4 - - - - ESE 15 22 8 12 1013.9 1012.6 0.0
21/03:30pm 28.4 - - - - SE 17 24 9 13 1013.8 1012.5 0.0
21/03:00pm 28.4 - - - - ESE 15 24 8 13 1013.9 1012.6 0.0
21/02:30pm 29.2 - - - - ESE 13 20 7 11 1013.9 1012.6 0.0
21/02:00pm 29.1 - - - - ESE 13 24 7 13 1014.0 1012.7 0.0
21/01:30pm 29.3 - - - - ESE 11 19 6 10 1014.4 1013.2 0.0
21/01:00pm 29.2 - - - - ESE 13 19 7 10 1014.7 1013.5 0.0
21/12:30pm 29.2 - - - - SE 9 20 5 11 1014.9 1013.7 0.0
21/12:00pm 28.8 - - - - SSE 15 20 8 11 1015.1 1013.9 0.0
21/11:30am 28.9 - - - - S 15 19 8 10 1015.4 1014.1 0.0
21/11:00am 28.2 - - - - SSW 15 22 8 12 1015.6 1014.3 0.0
21/10:30am 28.3 - - - - S 15 20 8 11 1015.6 1014.3 0.0
21/10:00am 28.0 - - - - SSE 11 19 6 10 1015.8 1014.5 0.0
21/09:30am 27.7 - - - - SSE 11 17 6 9 1015.7 1014.4 0.0
21/09:00am 27.6 - - - - S 9 15 5 8 1015.6 1014.3 6.0
21/08:30am 27.1 - - - - SSE 11 15 6 8 1015.6 1014.3 6.0
21/08:00am 27.5 - - - - SSE 4 9 2 5 1015.4 1014.1 6.0
21/07:30am 27.2 - - - - CALM 0 0 0 0 1015.0 1013.8 6.0
21/07:00am 26.5 - - - - CALM 0 0 0 0 1015.0 1013.8 6.0
21/06:30am 25.6 - - - - CALM 0 0 0 0 1014.6 1013.4 6.0
21/06:00am 24.9 - - - - CALM 0 0 0 0 1014.3 1013.1 6.0
21/05:30am 25.0 - - - - CALM 0 0 0 0 1014.1 1012.8 6.0
21/05:00am 25.0 - - - - N 4 4 2 2 1013.9 1012.6 6.0
21/04:30am 24.9 - - - - N 6 6 3 3 1013.7 1012.4 6.0
21/04:00am 24.6 - - - - N 7 9 4 5 1013.3 1012.0 6.0
21/03:30am 24.8 - - - - N 6 7 3 4 1013.1 1011.8 6.0
21/03:00am 24.9 - - - - N 6 6 3 3 1012.8 1011.5 6.0
21/02:30am 24.6 - - - - N 7 9 4 5 1012.6 1011.3 6.0
21/02:00am 24.6 - - - - N 6 7 3 4 1012.5 1011.2 6.0
21/01:30am 24.3 - - - - N 9 13 5 7 1012.5 1011.2 6.0
21/01:00am 24.3 - - - - N 11 13 6 7 1012.7 1011.4 6.0
21/12:30am 24.9 - - - - N 6 7 3 4 1013.1 1011.8 6.0
21/12:00am 25.4 - - - - N 11 17 6 9 1013.2 1011.9 6.0
 
Date/Time
EST
Temp
°C
App
Temp
°C
Dew
Point
°C
Rel
Hum
%
Delta-T
°C
Wind Press
QNH
hPa
Press
MSL
hPa
Rain since
9am
mm
Dir  Spd
km/h
Gust
km/h
Spd
kts
Gust
kts
20/11:30pm 25.5 - - - - N 13 17 7 9 1013.3 1012.0 6.0
20/11:00pm 25.5 - - - - N 13 19 7 10 1013.3 1012.0 6.0
20/10:30pm 25.4 - - - - N 13 19 7 10 1013.4 1012.1 6.0
20/10:00pm 25.2 - - - - N 11 15 6 8 1013.6 1012.3 6.0
20/09:30pm 25.4 - - - - N 13 17 7 9 1013.5 1012.2 6.0
20/09:00pm 25.5 - - - - N 15 19 8 10 1013.2 1011.9 6.0
20/08:30pm 25.7 - - - - NNE 15 20 8 11 1012.9 1011.6 6.0
20/08:00pm 25.8 - - - - NNE 17 20 9 11 1012.5 1011.2 6.0
20/07:30pm 25.9 - - - - NNE 19 24 10 13 1012.1 1010.8 6.0
20/07:00pm 25.8 - - - - NNE 15 20 8 11 1011.9 1010.6 6.0
20/06:30pm 26.1 - - - - NNE 13 19 7 10 1011.7 1010.4 6.0
20/06:00pm 26.1 - - - - NNE 13 20 7 11 1011.3 1010.0 6.0
20/05:30pm 26.1 - - - - NNE 15 20 8 11 1011.0 1009.7 6.0
20/05:00pm 27.3 - - - - NNE 15 20 8 11 1010.4 1009.1 6.0
20/04:30pm 27.4 - - - - NNE 13 19 7 10 1010.4 1009.1 6.0
20/04:00pm 27.4 - - - - NNE 15 20 8 11 1010.1 1008.9 6.0
20/03:30pm 27.4 - - - - NNE 13 19 7 10 1010.2 1009.0 6.0
20/03:00pm 28.2 - - - - N 13 20 7 11 1010.5 1009.2 6.0
20/02:30pm 27.6 - - - - NNE 13 20 7 11 1010.2 1009.0 6.0
20/02:00pm 26.6 - - - - NE 9 13 5 7 1010.7 1009.4 6.0
20/01:30pm 27.1 - - - - NNE 9 15 5 8 1011.0 1009.7 6.0
20/01:00pm 24.8 - - - - NNE 9 15 5 8 1011.5 1010.2 6.0
20/12:30pm 25.5 - - - - N 6 15 3 8 1011.8 1010.5 0.6
20/12:00pm 27.8 - - - - ENE 7 13 4 7 1012.0 1010.7 0.0
20/11:30am 27.3 - - - - NE 6 9 3 5 1012.3 1011.0 0.0
20/11:00am 25.9 - - - - NNE 7 9 4 5 1012.4 1011.1 0.0
20/10:30am 26.6 - - - - WNW 4 7 2 4 1012.4 1011.1 0.0
20/10:00am 26.9 - - - - N 7 13 4 7 1012.1 1010.8 0.0
20/09:30am 27.1 - - - - NNW 2 7 1 4 1012.1 1010.8 0.0
20/09:00am 27.6 - - - - NE 2 7 1 4 1012.1 1010.8 0.0
20/08:30am 26.7 - - - - NE 7 9 4 5 1011.9 1010.6 0.0
20/08:00am 25.8 - - - - E 2 6 1 3 1011.7 1010.4 0.0
20/07:30am 26.1 - - - - CALM 0 0 0 0 1011.8 1010.5 0.0
20/07:00am 26.3 - - - - CALM 0 0 0 0 1011.4 1010.1 0.0
20/06:30am 25.4 - - - - CALM 0 0 0 0 1011.2 1009.9 0.0
20/06:00am 25.1 - - - - CALM 0 0 0 0 1010.9 1009.6 0.0
20/05:30am 25.1 - - - - NNW 2 4 1 2 1010.7 1009.4 0.0
20/05:00am 24.8 - - - - CALM 0 0 0 0 1010.6 1009.3 0.0
20/04:30am 24.7 - - - - N 4 7 2 4 1010.0 1008.8 0.0
20/04:00am 24.8 - - - - N 9 13 5 7 1009.3 1008.0 0.0
20/03:30am 24.8 - - - - N 11 13 6 7 1009.4 1008.1 0.0
20/03:00am 24.7 - - - - N 6 7 3 4 1009.2 1007.9 0.0
20/02:30am 24.9 - - - - NNW 7 9 4 5 1009.4 1008.1 0.0
20/02:00am 25.0 - - - - NNW 7 13 4 7 1009.8 1008.5 0.0
20/01:30am 25.0 - - - - NNW 11 15 6 8 1010.1 1008.9 0.0
20/01:00am 24.6 - - - - N 9 11 5 6 1010.4 1009.1 0.0
20/12:30am 24.9 - - - - N 9 11 5 6 1010.7 1009.4 0.0
20/12:00am 25.0 - - - - NNW 7 11 4 6 1011.1 1009.8 0.0
 
Date/Time
EST
Temp
°C
App
Temp
°C
Dew
Point
°C
Rel
Hum
%
Delta-T
°C
Wind Press
QNH
hPa
Press
MSL
hPa
Rain since
9am
mm
Dir  Spd
km/h
Gust
km/h
Spd
kts
Gust
kts
19/11:30pm 24.5 - - - - N 9 11 5 6 1011.1 1009.8 0.0
19/11:00pm 24.9 - - - - NNW 9 13 5 7 1011.4 1010.1 0.0
19/10:30pm 24.6 - - - - NNW 11 13 6 7 1011.3 1010.0 0.0
19/10:00pm 24.2 - - - - N 9 11 5 6 1011.2 1009.9 0.0
19/09:30pm 24.2 - - - - NNW 9 13 5 7 1011.2 1009.9 0.0
19/09:00pm 24.9 - - - - NNW 11 15 6 8 1011.1 1009.8 0.0
19/08:30pm 25.5 - - - - N 15 20 8 11 1010.7 1009.4 0.0
19/08:00pm 25.4 - - - - N 15 20 8 11 1009.9 1008.6 0.0
19/07:30pm 25.4 - - - - N 15 22 8 12 1009.3 1008.0 0.0
19/07:00pm 25.0 - - - - N 13 19 7 10 1009.2 1007.9 0.0
19/06:30pm 25.2 - - - - NNW 11 17 6 9 1009.2 1007.9 0.0
19/06:00pm 25.4 - - - - N 13 20 7 11 1008.9 1007.6 0.0
19/05:30pm 25.4 - - - - N 11 19 6 10 1008.4 1007.1 0.0
19/05:00pm 25.7 - - - - N 13 20 7 11 1008.1 1006.8 0.0
19/04:30pm 26.8 - - - - N 15 20 8 11 1008.2 1006.9 0.0

Other Formats:

Comma delimited format used in spreadsheet applications
http://www.bom.gov.au/fwo/IDQ60801/IDQ60801.94372.axf

JavaScript Object Notation format (JSON) in row-major order
http://www.bom.gov.au/fwo/IDQ60801/IDQ60801.94372.json